Accueil
METAR-TAF:

METAR-TAF

Aéroports :

Locarno, Suisse

latitude: 46-09-55N, longitude: 8-52-40E, altitude: 198 m

Observation

Le bulletin a été fait il y a 1 heure et 6 minutes, à 10:50 UTC
Vent 4 kt de ouest/sud-ouest, variant entre sud/sud-ouest et ouest/nord-ouest
Température 23°C
Humidité 57%
Pression 1018 hPa
Visibilité 10 km ou plus
pas de nuages en-dessous de 1500 mètres et pas de cumulonimbus.

METAR: LSZL 231050Z 25004KT 210V290 CAVOK 23/14 Q1018 RMK BLU

Heure: 13:56 (11:56 UTC)

Prévision

Le bulletin a été fait il y a 31 minutes, à 11:25 UTC
Prévision valable du 23 à 12 UTC au 23 à 21 UTC
Vent 3 kt de direction variable
Visibilité 10 km ou plus
pas de nuages en-dessous de 1500 mètres et pas de cumulonimbus.
Temporairement
du 23 à 14 UTC au 23 à 17 UTC
Visibilité 10 km ou plus
Quelques nuages à une hauteur de 7000 ft, Cumulus congestus.

TAF: LSZL 231125Z 2312/2321 VRB03KT CAVOK TEMPO 2314/2317 9999 FEW070TCU

Observations et prévisions météorologiques de plus de 4000 aéroports (messages METAR et TAF).

Les stations disponibles sont représentées par des disques jaunes et rouges sur la carte.

Passer la souris dessus pour voir le nom de la station.

Cliquer dessus pour voir les observations et prévisions météorologiques.

Pour changer de carte: cliquez sur les boutons verts avec une croix noire pour zoomer, sur le bouton vert avec un tiret pour effectuer un zoom arrière, ou sur les flèches vertes pour les cartes adjacentes.


METAR-TAF: